Terminal Aerodrome Forecast
Issued by NWS Sioux Falls, SD

Home | Current Version | Previous Version | Graphics & Text | Print | Product List | Glossary On
Versions: 1 2 3 4 5 6 7 8 9 10 11 12 13 14 15 16 17 18 19 20
000
FTUS43 KFSD 201100 RRA
TAFFSD
TAF
KFSD 201142Z 2012/2112 13006KT P6SM BKN100
     FM201600 14013G20KT P6SM BKN150
     FM210100 14010KT P6SM FEW040 BKN150
      TEMPO 2103/2107 3SM TSRA BKN040CB
     FM210900 18008KT P6SM SCT250=

USA.gov is the U.S. government's official web portal to all federal, state and local government web resources and services.